createdAt,value
2022-09-21T00:01:15.017Z,83.02
2022-09-21T00:03:43.327Z,82.95
2022-09-21T00:06:20.010Z,82.83
2022-09-21T00:08:47.451Z,82.75
2022-09-21T00:11:26.147Z,83.20
2022-09-21T00:13:58.074Z,82.92
2022-09-21T00:16:24.671Z,83.37
2022-09-21T00:18:51.281Z,83.25
2022-09-21T00:21:18.162Z,83.31
2022-09-21T00:23:45.121Z,83.07
2022-09-21T00:26:23.455Z,82.92
2022-09-21T00:28:55.177Z,83.09
2022-09-21T00:31:22.428Z,82.64
2022-09-21T00:33:51.088Z,82.87
2022-09-21T00:36:19.775Z,82.74
2022-09-21T00:38:51.223Z,82.85
2022-09-21T00:41:17.953Z,83.46
2022-09-21T00:44:18.406Z,84.10
2022-09-21T00:46:46.748Z,84.21
2022-09-21T00:49:14.259Z,84.46
2022-09-21T00:51:42.105Z,84.50
2022-09-21T00:54:15.057Z,84.72
2022-09-21T00:56:44.108Z,84.36
2022-09-21T00:59:14.701Z,84.08
2022-09-21T01:01:42.964Z,84.09
2022-09-21T01:04:10.630Z,83.73
2022-09-21T01:06:38.697Z,84.18
2022-09-21T01:09:05.488Z,84.91
2022-09-21T01:12:05.811Z,85.22
2022-09-21T01:14:41.396Z,85.03
2022-09-21T01:17:40.911Z,85.32
2022-09-21T01:20:20.054Z,84.84
2022-09-21T01:22:55.469Z,85.27
2022-09-21T01:25:38.821Z,86.04
2022-09-21T01:28:43.359Z,86.23
2022-09-21T01:31:20.704Z,86.05
2022-09-21T01:33:54.541Z,86.21
2022-09-21T01:36:26.086Z,85.88
2022-09-21T01:38:56.595Z,86.24
2022-09-21T01:41:26.791Z,86.26
2022-09-21T01:43:57.529Z,86.38
2022-09-21T01:46:28.962Z,86.25
2022-09-21T01:49:00.841Z,85.83
2022-09-21T01:51:28.727Z,86.23
2022-09-21T01:54:04.847Z,85.93
2022-09-21T01:56:41.621Z,85.73
2022-09-21T01:59:25.136Z,85.96
2022-09-21T02:01:57.138Z,86.09
2022-09-21T02:04:23.743Z,86.46
2022-09-21T02:06:51.153Z,86.29
2022-09-21T02:09:18.108Z,85.79
2022-09-21T02:11:44.895Z,85.64
2022-09-21T02:14:15.133Z,85.50
2022-09-21T02:17:19.355Z,85.56
2022-09-21T02:19:57.870Z,85.48
2022-09-21T02:22:54.812Z,85.78
2022-09-21T02:25:32.655Z,85.90
2022-09-21T02:28:08.278Z,85.80
2022-09-21T02:30:37.133Z,85.26
2022-09-21T02:33:15.975Z,85.62
2022-09-21T02:35:46.046Z,85.37
2022-09-21T02:38:40.186Z,85.07
2022-09-21T02:41:16.920Z,84.90
2022-09-21T02:43:52.227Z,84.82
2022-09-21T02:46:28.994Z,85.23
2022-09-21T02:49:01.233Z,85.04
2022-09-21T02:51:38.749Z,85.16
2022-09-21T02:54:08.500Z,85.15
2022-09-21T02:56:36.825Z,85.29
2022-09-21T02:59:05.335Z,85.34
2022-09-21T03:01:33.025Z,84.89
2022-09-21T03:03:59.727Z,85.30
2022-09-21T03:06:26.157Z,85.13
2022-09-21T03:08:52.809Z,85.27
2022-09-21T03:11:20.503Z,85.55
2022-09-21T03:13:46.885Z,85.32
2022-09-21T03:16:13.636Z,85.79
2022-09-21T03:18:44.307Z,85.12
2022-09-21T03:21:12.177Z,85.02
2022-09-21T03:23:39.526Z,85.62
2022-09-21T03:26:06.163Z,86.25
2022-09-21T03:28:32.510Z,86.60
2022-09-21T03:30:58.913Z,86.55
2022-09-21T03:33:25.474Z,87.25
2022-09-21T03:35:52.594Z,87.38
2022-09-21T03:38:21.066Z,87.15
2022-09-21T03:40:49.014Z,87.00
2022-09-21T03:43:15.940Z,86.91
2022-09-21T03:45:42.653Z,86.99
2022-09-21T03:48:10.443Z,86.90
2022-09-21T03:50:37.761Z,86.68
2022-09-21T03:53:04.633Z,86.85
2022-09-21T03:55:31.576Z,86.79
2022-09-21T03:57:58.018Z,86.64
2022-09-21T04:00:24.413Z,86.14
2022-09-21T04:02:50.796Z,85.93
2022-09-21T04:05:17.331Z,86.16
2022-09-21T04:07:45.779Z,86.23
2022-09-21T04:10:17.738Z,85.90
2022-09-21T04:12:44.572Z,85.81
2022-09-21T04:15:13.930Z,86.07
2022-09-21T04:17:40.914Z,85.62
2022-09-21T04:20:08.833Z,85.41
2022-09-21T04:22:39.960Z,85.32
2022-09-21T04:25:10.704Z,85.86
2022-09-21T04:27:37.098Z,85.71
2022-09-21T04:30:03.854Z,86.24
2022-09-21T04:32:30.207Z,86.03
2022-09-21T04:34:56.506Z,86.09
2022-09-21T04:37:22.873Z,86.16
2022-09-21T04:39:49.548Z,86.38
2022-09-21T04:42:15.919Z,85.83
2022-09-21T04:44:42.229Z,85.82
2022-09-21T04:47:08.664Z,85.57
2022-09-21T04:49:35.052Z,85.58
2022-09-21T04:52:01.793Z,85.70
2022-09-21T04:54:28.166Z,86.19
2022-09-21T04:56:54.549Z,86.32
2022-09-21T04:59:20.949Z,85.88
2022-09-21T05:01:47.373Z,85.81
2022-09-21T05:04:13.722Z,86.02
2022-09-21T05:06:40.054Z,85.73
2022-09-21T05:09:25.117Z,85.12
2022-09-21T05:11:51.945Z,85.20
2022-09-21T05:14:18.381Z,85.11
2022-09-21T05:16:44.993Z,85.30
2022-09-21T05:19:11.317Z,85.02
2022-09-21T05:21:37.718Z,84.62
2022-09-21T05:24:04.331Z,84.72
2022-09-21T05:26:30.687Z,84.32
2022-09-21T05:28:57.362Z,85.11
2022-09-21T05:31:30.073Z,84.77
2022-09-21T05:34:12.813Z,85.21
2022-09-21T05:36:52.238Z,85.84
2022-09-21T05:39:18.873Z,86.22
2022-09-21T05:41:45.565Z,86.29
2022-09-21T05:44:14.455Z,86.02
2022-09-21T05:46:56.372Z,86.17
2022-09-21T05:49:45.583Z,86.15
2022-09-21T05:52:27.476Z,86.42
2022-09-21T05:55:06.369Z,85.84
2022-09-21T05:57:51.846Z,86.00
2022-09-21T06:00:20.173Z,86.23
2022-09-21T06:03:01.745Z,86.03
2022-09-21T06:05:28.257Z,85.75
2022-09-21T06:07:54.717Z,86.18
2022-09-21T06:10:21.521Z,86.27
2022-09-21T06:12:47.916Z,86.48
2022-09-21T06:15:15.078Z,86.05
2022-09-21T06:17:41.843Z,86.76
2022-09-21T06:20:08.824Z,86.54
2022-09-21T06:22:35.565Z,86.43
2022-09-21T06:25:02.052Z,86.12
2022-09-21T06:27:29.120Z,86.64
2022-09-21T06:29:55.638Z,86.32
2022-09-21T06:32:21.981Z,86.39
2022-09-21T06:34:49.812Z,86.69
2022-09-21T06:37:16.513Z,86.51
2022-09-21T06:39:42.807Z,86.91
2022-09-21T06:42:09.190Z,86.70
2022-09-21T06:44:35.514Z,87.13
2022-09-21T06:47:01.895Z,86.88
2022-09-21T06:49:28.748Z,87.07
2022-09-21T06:51:56.013Z,87.32
2022-09-21T06:54:22.615Z,87.20
2022-09-21T06:56:48.952Z,87.11
2022-09-21T06:59:15.267Z,86.66
2022-09-21T07:01:41.668Z,86.81
2022-09-21T07:04:09.351Z,86.79
2022-09-21T07:06:35.959Z,86.18
2022-09-21T07:11:49.696Z,86.78
2022-09-21T07:14:16.022Z,87.52
2022-09-21T07:16:43.337Z,87.01
2022-09-21T07:19:11.713Z,87.11
2022-09-21T07:21:38.692Z,87.03
2022-09-21T07:24:09.596Z,86.82
2022-09-21T07:26:39.131Z,86.57
2022-09-21T07:29:05.710Z,85.96
2022-09-21T07:31:32.162Z,85.90
2022-09-21T07:33:59.296Z,85.75
2022-09-21T07:36:25.726Z,84.90
2022-09-21T07:38:53.925Z,85.13
2022-09-21T07:41:20.897Z,84.92
2022-09-21T07:43:47.416Z,85.07
2022-09-21T07:46:14.906Z,85.19
2022-09-21T07:48:41.776Z,84.26
2022-09-21T07:51:11.239Z,84.23
2022-09-21T07:53:39.299Z,83.91
2022-09-21T07:56:11.542Z,83.86
2022-09-21T07:58:57.264Z,84.27
2022-09-21T08:01:24.990Z,84.20
2022-09-21T08:03:53.473Z,83.92
2022-09-21T08:06:21.065Z,84.48
2022-09-21T08:08:48.213Z,83.79
2022-09-21T08:11:21.248Z,83.32
2022-09-21T08:13:48.725Z,83.44
2022-09-21T08:16:15.259Z,82.63
2022-09-21T08:18:41.863Z,82.08
2022-09-21T08:21:12.139Z,81.67
2022-09-21T08:23:42.997Z,81.57
2022-09-21T08:26:19.335Z,81.93
2022-09-21T08:28:49.170Z,80.24
2022-09-21T08:31:18.576Z,80.00
2022-09-21T08:33:45.957Z,79.48
2022-09-21T08:36:12.482Z,78.41
2022-09-21T08:38:39.870Z,77.22
2022-09-21T08:41:41.702Z,75.16
2022-09-21T08:44:17.525Z,75.01
2022-09-21T08:46:46.515Z,71.61
2022-09-21T08:49:24.856Z,71.61
2022-09-21T08:52:03.987Z,72.18
2022-09-21T08:54:42.370Z,70.24
2022-09-21T08:57:15.388Z,69.80
2022-09-21T08:59:45.497Z,68.95
2022-09-21T09:02:27.225Z,67.47
2022-09-21T09:05:10.843Z,65.82
2022-09-21T09:08:19.413Z,64.22
2022-09-21T09:10:55.551Z,64.64
2022-09-21T09:13:45.508Z,62.17
2022-09-21T09:16:36.170Z,60.32
2022-09-21T09:19:17.771Z,61.16
2022-09-21T09:21:45.069Z,59.50
2022-09-21T09:24:32.716Z,60.52
2022-09-21T09:27:28.524Z,55.20
2022-09-21T09:30:17.781Z,55.63
2022-09-21T09:32:54.457Z,57.39
2022-09-21T09:35:52.436Z,52.05
2022-09-21T09:38:28.805Z,48.85
2022-09-21T09:41:08.902Z,49.86
2022-09-21T09:43:38.237Z,47.80
2022-09-21T09:46:36.853Z,50.08
2022-09-21T09:49:22.629Z,44.34
2022-09-21T09:51:49.179Z,44.30
2022-09-21T09:54:17.734Z,43.46
2022-09-21T09:56:44.726Z,43.69
2022-09-21T09:59:36.839Z,41.55
2022-09-21T10:02:07.945Z,42.24
2022-09-21T10:04:36.947Z,40.84
2022-09-21T10:07:03.400Z,41.29
2022-09-21T10:09:34.068Z,42.71
2022-09-21T10:12:08.089Z,39.71
2022-09-21T10:14:36.617Z,38.13
2022-09-21T10:17:08.071Z,39.29
2022-09-21T10:19:34.934Z,38.82
2022-09-21T10:22:04.041Z,38.58
2022-09-21T10:24:37.447Z,38.53
2022-09-21T10:27:06.276Z,37.30
2022-09-21T10:29:40.847Z,37.40
2022-09-21T10:32:14.719Z,38.44
2022-09-21T10:34:59.547Z,38.00
2022-09-21T10:37:35.641Z,35.88
2022-09-21T10:40:02.099Z,35.91
2022-09-21T10:42:41.598Z,35.02
2022-09-21T10:45:25.176Z,34.04
2022-09-21T10:47:58.341Z,37.35
2022-09-21T10:50:25.267Z,34.65
2022-09-21T10:52:57.538Z,37.70
2022-09-21T10:55:25.183Z,36.51
2022-09-21T10:57:52.798Z,38.56
2022-09-21T11:00:22.079Z,40.79
2022-09-21T11:02:48.645Z,41.22
2022-09-21T11:05:17.677Z,39.69
2022-09-21T11:08:04.011Z,36.87
2022-09-21T11:11:07.508Z,37.37
2022-09-21T11:13:49.719Z,33.80
2022-09-21T11:16:28.191Z,34.12
2022-09-21T11:19:13.128Z,35.69
2022-09-21T11:22:06.857Z,33.69
2022-09-21T11:25:04.735Z,34.05
2022-09-21T11:27:43.966Z,34.67
2022-09-21T11:30:13.543Z,33.41
2022-09-21T11:32:59.128Z,32.98
2022-09-21T11:35:37.658Z,32.78
2022-09-21T11:38:34.554Z,34.93
2022-09-21T11:41:23.846Z,33.88
2022-09-21T11:44:17.151Z,33.43
2022-09-21T11:46:59.833Z,34.03
2022-09-21T11:50:03.070Z,32.69
2022-09-21T11:53:00.577Z,32.67
2022-09-21T11:55:47.443Z,33.06
2022-09-21T11:58:20.654Z,31.72
2022-09-21T12:01:05.796Z,33.16
2022-09-21T12:03:35.529Z,33.11
2022-09-21T12:06:21.161Z,33.05
2022-09-21T12:08:53.615Z,31.44
2022-09-21T12:11:39.113Z,31.08
2022-09-21T12:14:19.093Z,31.52
2022-09-21T12:16:55.790Z,33.55
2022-09-21T12:19:45.761Z,33.65
2022-09-21T12:22:22.507Z,33.31
2022-09-21T12:24:55.926Z,32.57
2022-09-21T12:27:31.454Z,33.28
2022-09-21T12:30:17.510Z,34.74
2022-09-21T12:32:50.030Z,33.84
2022-09-21T12:35:23.435Z,35.97
2022-09-21T12:38:06.878Z,34.01
2022-09-21T12:40:38.517Z,34.29
2022-09-21T12:43:28.362Z,34.55
2022-09-21T12:46:25.807Z,32.76
2022-09-21T12:48:52.887Z,34.00
2022-09-21T12:51:35.474Z,34.90
2022-09-21T12:54:12.262Z,37.15
2022-09-21T12:56:49.900Z,38.22
2022-09-21T12:59:30.253Z,38.22
2022-09-21T13:02:12.177Z,39.59
2022-09-21T13:05:08.000Z,39.18
2022-09-21T13:08:09.575Z,37.98
2022-09-21T13:10:49.166Z,37.94
2022-09-21T13:13:45.706Z,38.72
2022-09-21T13:16:38.819Z,38.82
2022-09-21T13:19:21.425Z,38.93
2022-09-21T13:22:21.874Z,39.29
2022-09-21T13:25:27.450Z,38.65
2022-09-21T13:28:09.028Z,38.94
2022-09-21T13:30:49.210Z,39.00
2022-09-21T13:33:18.714Z,40.15
2022-09-21T13:35:47.933Z,38.69
2022-09-21T13:38:27.937Z,37.97
2022-09-21T13:41:00.510Z,37.55
2022-09-21T13:43:53.298Z,38.15
2022-09-21T13:46:34.687Z,37.27
2022-09-21T13:49:16.361Z,37.78
2022-09-21T13:52:27.025Z,36.07
2022-09-21T13:54:58.153Z,37.82
2022-09-21T13:57:39.787Z,36.51
2022-09-21T14:00:12.567Z,36.46
2022-09-21T14:02:44.889Z,37.75
2022-09-21T14:05:46.322Z,37.56
2022-09-21T14:08:15.666Z,37.63
2022-09-21T14:11:07.898Z,37.77
2022-09-21T14:13:41.978Z,37.99
2022-09-21T14:16:37.263Z,38.96
2022-09-21T14:19:23.694Z,37.96
2022-09-21T14:22:05.356Z,40.43
2022-09-21T14:24:45.582Z,37.86
2022-09-21T14:27:30.417Z,37.24
2022-09-21T14:30:07.297Z,36.07
2022-09-21T14:32:47.234Z,37.36
2022-09-21T14:35:18.668Z,39.39
2022-09-21T14:37:52.076Z,40.63
2022-09-21T14:40:24.568Z,38.94
2022-09-21T14:42:55.447Z,39.95
2022-09-21T14:46:12.940Z,42.50
2022-09-21T14:49:00.827Z,40.81
2022-09-21T14:51:36.416Z,41.53
2022-09-21T14:54:21.214Z,39.11
2022-09-21T14:57:08.531Z,37.42
2022-09-21T14:59:55.934Z,38.22
2022-09-21T15:02:26.774Z,40.84
2022-09-21T15:05:08.711Z,39.65
2022-09-21T15:08:04.695Z,40.79
2022-09-21T15:10:55.548Z,43.69
2022-09-21T15:13:36.897Z,47.25
2022-09-21T15:16:09.306Z,47.33
2022-09-21T15:18:42.405Z,47.95
2022-09-21T15:21:21.919Z,49.89
2022-09-21T15:23:50.495Z,48.66
2022-09-21T15:26:23.784Z,47.02
2022-09-21T15:29:09.338Z,47.96
2022-09-21T15:31:41.928Z,47.38
2022-09-21T15:34:11.082Z,46.16
2022-09-21T15:36:40.511Z,46.75
2022-09-21T15:39:20.526Z,41.94
2022-09-21T15:41:48.868Z,42.96
2022-09-21T15:44:17.998Z,39.90
2022-09-21T15:46:50.358Z,41.36
2022-09-21T15:49:22.138Z,40.54
2022-09-21T15:52:25.476Z,39.55
2022-09-21T15:54:59.666Z,40.50
2022-09-21T15:57:39.034Z,40.51
2022-09-21T16:00:08.379Z,40.99
2022-09-21T16:02:39.514Z,40.25
2022-09-21T16:05:14.428Z,40.71
2022-09-21T16:07:41.430Z,41.93
2022-09-21T16:10:29.550Z,41.47
2022-09-21T16:13:41.613Z,43.06
2022-09-21T16:16:11.960Z,42.94
2022-09-21T16:18:55.852Z,39.89
2022-09-21T16:21:27.652Z,42.37
2022-09-21T16:23:58.864Z,43.89
2022-09-21T16:26:30.756Z,44.37
2022-09-21T16:29:16.711Z,45.61
2022-09-21T16:31:49.080Z,46.98
2022-09-21T16:34:33.158Z,46.74
2022-09-21T16:37:02.119Z,49.13
2022-09-21T16:39:29.137Z,48.81
2022-09-21T16:42:00.867Z,48.57
2022-09-21T16:44:30.786Z,49.81
2022-09-21T16:47:00.378Z,49.98
2022-09-21T16:49:31.205Z,50.33
2022-09-21T16:51:58.194Z,50.32
2022-09-21T16:54:25.984Z,52.12
2022-09-21T16:56:54.228Z,52.09
2022-09-21T16:59:23.161Z,51.25
2022-09-21T17:01:56.103Z,53.43
2022-09-21T17:04:25.718Z,53.74
2022-09-21T17:06:53.217Z,52.50
2022-09-21T17:09:28.384Z,53.06
2022-09-21T17:11:56.290Z,53.04
2022-09-21T17:14:23.988Z,53.62
2022-09-21T17:16:58.626Z,54.33
2022-09-21T17:19:25.297Z,54.28
2022-09-21T17:21:51.722Z,53.97
2022-09-21T17:24:38.938Z,54.61
2022-09-21T17:27:04.375Z,54.56
2022-09-21T17:29:31.117Z,54.51
2022-09-21T17:31:58.570Z,55.09
2022-09-21T17:34:27.449Z,54.88
2022-09-21T17:36:54.898Z,55.25
2022-09-21T17:39:22.794Z,54.56
2022-09-21T17:41:58.001Z,55.23
2022-09-21T17:44:34.152Z,54.41
2022-09-21T17:47:05.198Z,55.87
2022-09-21T17:49:31.691Z,57.22
2022-09-21T17:52:16.903Z,57.35
2022-09-21T17:54:43.453Z,55.46
2022-09-21T17:57:40.341Z,56.43
2022-09-21T18:00:23.932Z,58.10
2022-09-21T18:02:52.285Z,59.10
2022-09-21T18:05:27.455Z,56.85
2022-09-21T18:07:54.186Z,58.65
2022-09-21T18:10:22.486Z,58.02
2022-09-21T18:13:24.438Z,57.38
2022-09-21T18:16:07.347Z,58.65
2022-09-21T18:18:59.561Z,54.76
2022-09-21T18:21:27.815Z,56.14
2022-09-21T18:24:33.348Z,54.65
2022-09-21T18:27:00.760Z,55.45
2022-09-21T18:29:41.132Z,55.66
2022-09-21T18:32:28.966Z,55.47
2022-09-21T18:35:01.274Z,55.19
2022-09-21T18:38:04.917Z,58.06
2022-09-21T18:40:44.457Z,56.06
2022-09-21T18:43:44.713Z,55.65
2022-09-21T18:46:28.777Z,57.43
2022-09-21T18:49:23.676Z,59.01
2022-09-21T18:52:05.080Z,60.09
2022-09-21T18:54:31.654Z,60.51
2022-09-21T18:56:58.869Z,60.47
2022-09-21T18:59:29.627Z,60.65
2022-09-21T19:01:59.659Z,60.75
2022-09-21T19:04:26.573Z,58.41
2022-09-21T19:07:04.594Z,59.72
2022-09-21T19:10:03.812Z,60.33
2022-09-21T19:12:45.314Z,58.20
2022-09-21T19:15:27.523Z,57.71
2022-09-21T19:18:21.458Z,57.27
2022-09-21T19:21:00.605Z,57.46
2022-09-21T19:23:55.729Z,57.96
2022-09-21T19:26:47.058Z,57.61
2022-09-21T19:29:29.761Z,58.31
2022-09-21T19:31:56.205Z,59.21
2022-09-21T19:34:22.789Z,57.60
2022-09-21T19:36:49.313Z,58.00
2022-09-21T19:39:16.178Z,58.30
2022-09-21T19:41:54.678Z,59.11
2022-09-21T19:44:41.939Z,58.54
2022-09-21T19:47:22.845Z,57.67
2022-09-21T19:49:54.322Z,59.03
2022-09-21T19:52:29.226Z,59.07
2022-09-21T19:55:14.442Z,59.46
2022-09-21T19:57:59.614Z,59.73
2022-09-21T20:00:26.313Z,59.84
2022-09-21T20:02:58.513Z,59.80
2022-09-21T20:05:34.223Z,60.19
2022-09-21T20:08:18.956Z,60.51
2022-09-21T20:11:13.026Z,60.34
2022-09-21T20:14:07.050Z,60.66
2022-09-21T20:16:40.147Z,60.74
2022-09-21T20:19:28.246Z,61.48
2022-09-21T20:22:04.795Z,61.33
2022-09-21T20:25:07.421Z,61.30
2022-09-21T20:27:44.147Z,60.91
2022-09-21T20:30:13.233Z,61.39
2022-09-21T20:32:43.605Z,61.80
2022-09-21T20:35:21.898Z,62.57
2022-09-21T20:37:48.655Z,61.88
2022-09-21T20:40:15.543Z,63.18
2022-09-21T20:42:42.445Z,63.79
2022-09-21T20:45:10.574Z,64.11
2022-09-21T20:47:37.568Z,63.39
2022-09-21T20:50:04.813Z,63.66
2022-09-21T20:52:31.149Z,64.32
2022-09-21T20:54:57.482Z,63.32
2022-09-21T20:57:24.186Z,63.49
2022-09-21T20:59:50.498Z,63.36
2022-09-21T21:02:16.856Z,65.12
2022-09-21T21:04:43.254Z,64.36
2022-09-21T21:07:10.064Z,65.05
2022-09-21T21:09:36.430Z,64.76
2022-09-21T21:12:02.873Z,65.29
2022-09-21T21:14:29.892Z,66.66
2022-09-21T21:16:56.412Z,67.73
2022-09-21T21:19:23.215Z,67.24
2022-09-21T21:21:49.549Z,66.26
2022-09-21T21:24:34.765Z,65.47
2022-09-21T21:27:02.824Z,65.43
2022-09-21T21:29:30.678Z,65.42
2022-09-21T21:31:57.187Z,65.37
2022-09-21T21:34:23.650Z,65.48
2022-09-21T21:36:50.288Z,65.33
2022-09-21T21:39:16.622Z,64.89
2022-09-21T21:41:43.585Z,65.49
2022-09-21T21:44:11.383Z,65.75
2022-09-21T21:46:37.798Z,64.92
2022-09-21T21:49:05.182Z,65.08
2022-09-21T21:51:31.605Z,65.22
2022-09-21T21:53:58.066Z,65.17
2022-09-21T21:56:24.619Z,65.48
2022-09-21T21:58:55.125Z,65.29
2022-09-21T22:01:24.471Z,65.29
2022-09-21T22:03:56.071Z,66.06
2022-09-21T22:06:23.446Z,67.52
2022-09-21T22:08:51.441Z,68.72
2022-09-21T22:11:19.857Z,69.13
2022-09-21T22:13:46.937Z,69.18
2022-09-21T22:16:18.844Z,69.64
2022-09-21T22:18:46.212Z,70.65
2022-09-21T22:21:17.939Z,70.85
2022-09-21T22:23:44.318Z,71.32
2022-09-21T22:26:15.758Z,70.90
2022-09-21T22:28:44.679Z,71.94
2022-09-21T22:31:19.445Z,72.17
2022-09-21T22:33:46.534Z,72.03
2022-09-21T22:36:18.750Z,72.46
2022-09-21T22:38:46.201Z,72.29
2022-09-21T22:41:17.088Z,72.79
2022-09-21T22:43:44.906Z,72.65
2022-09-21T22:46:11.812Z,73.12
2022-09-21T22:48:38.559Z,73.62
2022-09-21T22:51:05.471Z,74.49
2022-09-21T22:53:32.194Z,73.91
2022-09-21T22:56:07.714Z,73.79
2022-09-21T22:58:35.956Z,74.51
2022-09-21T23:01:15.694Z,74.83
2022-09-21T23:03:42.431Z,75.62
2022-09-21T23:06:11.558Z,75.96
2022-09-21T23:08:38.893Z,75.85
2022-09-21T23:11:14.841Z,76.47
2022-09-21T23:13:42.173Z,76.15
2022-09-21T23:16:11.324Z,76.17
2022-09-21T23:18:39.293Z,76.26
2022-09-21T23:21:09.857Z,76.33
2022-09-21T23:23:36.406Z,76.17
2022-09-21T23:26:15.199Z,76.24
2022-09-21T23:28:45.574Z,76.01
2022-09-21T23:31:14.401Z,75.72
2022-09-21T23:33:49.101Z,76.21
2022-09-21T23:36:17.565Z,76.17
2022-09-21T23:38:44.222Z,76.24
2022-09-21T23:41:13.879Z,76.03
2022-09-21T23:43:42.280Z,76.58
2022-09-21T23:46:10.775Z,76.97
2022-09-21T23:48:38.165Z,76.85
2022-09-21T23:51:05.276Z,77.35
2022-09-21T23:53:32.131Z,76.70
2022-09-21T23:55:58.648Z,76.39
2022-09-21T23:58:26.576Z,76.71
